Time;durP1;ratioP1;P1;durP2;ratioP2;P2;SDS_P1;SDS_P2;PMS_P1;PMS_P2;Temp;Humidity;BMP_temperature;BMP_pressure;BME280_temperature;BME280_humidity;BME280_pressure;Samples;Min_cycle;Max_cycle;Signal;HPM_P1;HPM_P2
2023/04/19 00:00:43;;;;;;;11.15;6.47;;;8.20;99.90;;;;;;5013553;28;20436;-63
2023/04/19 00:03:09;;;;;;;5.00;3.95;;;8.20;1.00;;;;;;5025884;28;20187;-64
2023/04/19 00:05:37;;;;;;;8.02;5.72;;;8.20;1.00;;;;;;5028644;28;20057;-63
2023/04/19 00:08:04;;;;;;;10.48;7.65;;;8.20;1.00;;;;;;5014169;28;21419;-63
2023/04/19 00:10:30;;;;;;;10.23;7.78;;;8.20;1.00;;;;;;5012494;28;20432;-63
2023/04/19 00:12:55;;;;;;;10.38;7.70;;;8.10;1.00;;;;;;5012307;28;20045;-64
2023/04/19 00:15:21;;;;;;;11.63;7.45;;;8.10;1.00;;;;;;5014208;28;20566;-62
2023/04/19 00:17:47;;;;;;;9.85;7.13;;;8.10;1.00;;;;;;5018550;28;20135;-63
2023/04/19 00:20:13;;;;;;;8.68;7.13;;;8.00;1.00;;;;;;5013575;28;20471;-64
2023/04/19 00:22:39;;;;;;;8.75;6.70;;;7.90;1.00;;;;;;5012924;28;20042;-64
2023/04/19 00:25:05;;;;;;;10.23;7.18;;;7.90;1.00;;;;;;5016238;28;20040;-63
2023/04/19 00:27:31;;;;;;;9.18;6.80;;;7.80;1.00;;;;;;5014467;28;20299;-64
2023/04/19 00:29:57;;;;;;;9.80;6.97;;;7.90;1.00;;;;;;5015480;28;20057;-64
2023/04/19 00:32:23;;;;;;;11.88;7.63;;;7.90;1.00;;;;;;5011892;28;20057;-64
2023/04/19 00:34:49;;;;;;;10.57;7.80;;;7.80;1.00;;;;;;5012952;28;20276;-64
2023/04/19 00:37:15;;;;;;;13.18;8.80;;;7.80;1.00;;;;;;5014174;28;20128;-64
2023/04/19 00:39:40;;;;;;;9.48;7.78;;;7.80;1.00;;;;;;5024617;28;20041;-64
2023/04/19 00:42:06;;;;;;;9.00;7.72;;;7.80;1.00;;;;;;5013867;28;20543;-63
2023/04/19 00:44:32;;;;;;;10.27;7.63;;;7.70;1.00;;;;;;5012336;28;20167;-64
2023/04/19 00:46:59;;;;;;;11.32;8.00;;;7.70;1.00;;;;;;5017659;28;20100;-65
2023/04/19 00:49:26;;;;;;;11.63;8.73;;;7.70;1.00;;;;;;5017948;28;20115;-63
2023/04/19 00:51:52;;;;;;;14.20;9.90;;;7.60;1.00;;;;;;5014219;28;20275;-64
2023/04/19 00:54:19;;;;;;;13.38;9.07;;;7.60;1.00;;;;;;5015874;28;20060;-63
2023/04/19 00:56:45;;;;;;;12.32;9.98;;;7.60;1.00;;;;;;5014267;28;20124;-62
2023/04/19 00:59:13;;;;;;;14.27;9.65;;;7.50;1.00;;;;;;5016558;28;20361;-63
2023/04/19 01:01:40;;;;;;;13.63;10.20;;;7.50;1.00;;;;;;5033491;28;20056;-63
2023/04/19 01:04:07;;;;;;;13.90;10.98;;;7.50;1.00;;;;;;5019176;28;20049;-64
2023/04/19 01:06:34;;;;;;;13.25;9.98;;;7.40;1.00;;;;;;5016209;28;20793;-63
2023/04/19 01:09:00;;;;;;;12.88;10.25;;;7.40;1.00;;;;;;5000763;28;20037;-63
2023/04/19 01:11:27;;;;;;;13.02;8.57;;;7.30;1.00;;;;;;5012327;28;20045;-63
2023/04/19 01:13:55;;;;;;;14.93;11.73;;;7.30;1.00;;;;;;5019649;28;20052;-62
2023/04/19 01:16:21;;;;;;;14.93;11.20;;;7.30;1.00;;;;;;5016325;28;20118;-62
2023/04/19 01:18:46;;;;;;;13.75;10.93;;;7.30;1.00;;;;;;5018363;28;20506;-63
2023/04/19 01:21:12;;;;;;;12.40;10.93;;;7.20;1.00;;;;;;4996267;28;20309;-63
2023/04/19 01:23:38;;;;;;;13.10;10.73;;;7.20;1.00;;;;;;5011767;28;20242;-63
2023/04/19 01:26:05;;;;;;;14.80;11.40;;;7.10;1.00;;;;;;5018622;28;20519;-62
2023/04/19 01:28:32;;;;;;;15.15;11.40;;;7.10;1.00;;;;;;5020509;28;20083;-63
2023/04/19 01:30:58;;;;;;;12.95;10.25;;;7.10;1.00;;;;;;5016134;28;20064;-64
2023/04/19 01:33:24;;;;;;;13.98;9.82;;;7.00;1.00;;;;;;5018113;28;20045;-64
2023/04/19 01:35:50;;;;;;;13.27;10.68;;;7.00;99.90;;;;;;5010429;28;20914;-63
2023/04/19 01:38:16;;;;;;;13.93;11.27;;;6.90;99.90;;;;;;5019485;28;20033;-62
2023/04/19 01:40:42;;;;;;;13.20;9.73;;;6.90;99.90;;;;;;5021217;28;20132;-61
2023/04/19 01:43:12;;;;;;;13.95;9.32;;;6.90;99.90;;;;;;5020882;28;20566;-63
2023/04/19 01:45:37;;;;;;;12.00;8.40;;;6.90;99.90;;;;;;5016317;28;20045;-63
2023/04/19 01:48:03;;;;;;;12.25;9.25;;;6.90;99.90;;;;;;5020149;28;20030;-63
2023/04/19 01:50:30;;;;;;;12.38;7.90;;;6.80;99.90;;;;;;5030048;28;20064;-63
2023/04/19 01:52:56;;;;;;;12.13;9.77;;;6.80;99.90;;;;;;5004596;28;20254;-62
2023/04/19 01:55:21;;;;;;;11.13;8.70;;;6.90;99.90;;;;;;5040777;28;20314;-62
2023/04/19 01:57:47;;;;;;;11.20;9.05;;;6.80;99.90;;;;;;5016958;28;20052;-62
2023/04/19 02:00:14;;;;;;;11.98;8.88;;;6.80;99.90;;;;;;5019666;28;20060;-62
2023/04/19 02:02:40;;;;;;;10.70;8.15;;;6.70;99.90;;;;;;5019193;28;20273;-62
2023/04/19 02:05:07;;;;;;;11.95;7.68;;;6.70;99.90;;;;;;5018083;28;20045;-62
2023/04/19 02:07:33;;;;;;;9.85;7.28;;;6.60;99.90;;;;;;5017093;28;20369;-63
2023/04/19 02:09:59;;;;;;;11.32;9.15;;;6.60;99.90;;;;;;5021313;28;20049;-62
2023/04/19 02:12:29;;;;;;;11.38;9.05;;;6.60;99.90;;;;;;5018393;28;20310;-62
2023/04/19 02:14:56;;;;;;;11.07;8.40;;;6.60;99.90;;;;;;5017338;28;20040;-64
2023/04/19 02:17:25;;;;;;;13.18;9.10;;;6.50;99.90;;;;;;5019517;28;20041;-62
2023/04/19 02:19:51;;;;;;;11.75;8.82;;;6.40;99.90;;;;;;5033729;28;20059;-62
2023/04/19 02:22:17;;;;;;;12.07;7.85;;;6.40;99.90;;;;;;5019382;28;20045;-62
2023/04/19 02:24:44;;;;;;;12.80;8.98;;;6.50;99.90;;;;;;5018731;28;20115;-63
2023/04/19 02:27:10;;;;;;;12.15;8.77;;;6.40;99.90;;;;;;5019943;28;20072;-61
2023/04/19 02:29:36;;;;;;;10.18;8.65;;;6.40;99.90;;;;;;5021379;28;20080;-62
2023/04/19 02:32:05;;;;;;;9.30;7.93;;;6.40;99.90;;;;;;5016504;28;20045;-63
2023/04/19 02:34:35;;;;;;;13.10;9.30;;;6.40;99.90;;;;;;5017777;28;20049;-62
2023/04/19 02:37:01;;;;;;;12.23;7.88;;;6.30;99.90;;;;;;5037414;28;20088;-63
2023/04/19 02:39:27;;;;;;;14.35;9.18;;;6.30;99.90;;;;;;5016779;28;20037;-62
2023/04/19 02:41:52;;;;;;;12.05;8.35;;;6.20;99.90;;;;;;5034266;28;20528;-64
2023/04/19 02:44:18;;;;;;;11.88;7.65;;;6.20;99.90;;;;;;5017811;28;20052;-62
2023/04/19 02:46:53;;;;;;;11.60;8.23;;;6.10;99.90;;;;;;5019056;28;20045;-61
2023/04/19 02:49:20;;;;;;;12.93;8.55;;;6.20;99.90;;;;;;5018256;28;20304;-62
2023/04/19 02:51:46;;;;;;;12.77;8.07;;;6.20;99.90;;;;;;5016592;28;20558;-62
2023/04/19 02:54:12;;;;;;;11.23;7.60;;;6.10;99.90;;;;;;5006296;28;20044;-62
2023/04/19 02:56:38;;;;;;;12.40;8.38;;;6.10;99.90;;;;;;5020277;28;20127;-62
2023/04/19 02:59:04;;;;;;;8.80;6.72;;;6.10;99.90;;;;;;5011656;28;20047;-62
2023/04/19 03:01:31;;;;;;;11.52;7.15;;;6.10;99.90;;;;;;5033695;28;20781;-63
2023/04/19 03:03:57;;;;;;;10.55;7.93;;;6.00;99.90;;;;;;5016084;28;20045;-62
2023/04/19 03:06:22;;;;;;;13.27;8.95;;;6.00;99.90;;;;;;5044050;28;20217;-62
2023/04/19 03:08:48;;;;;;;12.20;7.15;;;5.90;99.90;;;;;;5015302;28;20045;-63
2023/04/19 03:11:18;;;;;;;9.63;7.25;;;5.90;99.90;;;;;;5012634;28;20048;-61
2023/04/19 03:13:43;;;;;;;9.70;6.95;;;5.90;99.90;;;;;;5016639;28;20041;-62
2023/04/19 03:16:09;;;;;;;8.85;6.53;;;5.80;99.90;;;;;;4994824;28;20184;-62
2023/04/19 03:18:35;;;;;;;10.07;6.75;;;5.70;99.90;;;;;;5017822;28;20052;-61
2023/04/19 03:21:01;;;;;;;10.20;7.32;;;5.70;99.90;;;;;;5017114;28;20606;-63
2023/04/19 03:23:27;;;;;;;11.48;8.07;;;5.70;99.90;;;;;;5015492;28;20123;-63
2023/04/19 03:25:53;;;;;;;10.82;7.10;;;5.70;99.90;;;;;;5004225;28;20051;-63
2023/04/19 03:28:19;;;;;;;8.48;6.30;;;5.70;99.90;;;;;;5009992;28;20033;-64
2023/04/19 03:30:45;;;;;;;7.50;6.20;;;5.60;99.90;;;;;;5006021;28;20056;-63
2023/04/19 03:33:11;;;;;;;11.38;7.63;;;5.70;99.90;;;;;;5022512;28;20048;-63
2023/04/19 03:35:37;;;;;;;11.25;7.07;;;5.60;99.90;;;;;;5007501;28;20084;-63
2023/04/19 03:38:03;;;;;;;11.95;7.47;;;5.80;99.90;;;;;;5016376;28;20076;-64
2023/04/19 03:40:31;;;;;;;9.68;6.57;;;5.60;99.90;;;;;;5016395;28;20045;-64
2023/04/19 03:42:57;;;;;;;10.38;6.20;;;5.60;99.90;;;;;;5018932;28;20041;-63
2023/04/19 03:45:23;;;;;;;6.85;4.60;;;5.60;99.90;;;;;;5012275;28;20372;-64
2023/04/19 03:47:49;;;;;;;10.43;6.80;;;5.50;99.90;;;;;;5015856;28;20052;-64
2023/04/19 03:50:15;;;;;;;7.50;5.22;;;5.50;99.90;;;;;;5020825;28;20048;-62
2023/04/19 03:52:40;;;;;;;6.80;5.20;;;5.50;99.90;;;;;;5018198;28;20033;-64
2023/04/19 03:55:07;;;;;;;8.02;5.18;;;5.50;99.90;;;;;;5011338;28;20435;-63
2023/04/19 03:57:32;;;;;;;7.40;5.05;;;5.40;99.90;;;;;;5001059;28;20060;-63
2023/04/19 03:59:59;;;;;;;11.05;5.88;;;5.40;99.90;;;;;;5021749;28;20240;-63
2023/04/19 04:02:25;;;;;;;8.32;5.50;;;5.30;99.90;;;;;;5017661;28;20106;-64
2023/04/19 04:04:54;;;;;;;8.38;5.57;;;5.30;99.90;;;;;;5011256;28;20033;-64
2023/04/19 04:07:22;;;;;;;9.85;5.82;;;5.20;99.90;;;;;;5019154;28;20056;-64
2023/04/19 04:09:48;;;;;;;10.57;6.10;;;5.20;99.90;;;;;;5019465;28;20360;-63
2023/04/19 04:12:14;;;;;;;8.07;6.22;;;5.10;99.90;;;;;;5025726;28;20047;-62
2023/04/19 04:14:40;;;;;;;13.43;5.93;;;5.10;99.90;;;;;;5034458;28;20073;-64
2023/04/19 04:17:05;;;;;;;9.85;5.57;;;5.10;99.90;;;;;;5005730;28;20040;-62
2023/04/19 04:19:31;;;;;;;8.80;5.60;;;5.00;99.90;;;;;;5030809;28;20511;-62
2023/04/19 04:21:57;;;;;;;7.85;4.97;;;5.00;99.90;;;;;;5012771;28;20467;-61
2023/04/19 04:24:22;;;;;;;8.48;5.20;;;5.00;99.90;;;;;;5012705;28;20130;-62
2023/04/19 04:26:51;;;;;;;7.75;5.30;;;5.00;99.90;;;;;;5014882;28;20395;-62
2023/04/19 04:29:17;;;;;;;9.18;5.43;;;5.00;99.90;;;;;;4994716;28;20315;-63
2023/04/19 04:31:43;;;;;;;9.68;5.88;;;5.00;99.90;;;;;;4985778;28;20103;-62
2023/04/19 04:34:08;;;;;;;8.52;5.13;;;5.00;99.90;;;;;;5016835;28;20045;-63
2023/04/19 04:36:36;;;;;;;8.52;4.85;;;5.00;99.90;;;;;;5028038;28;20068;-64
2023/04/19 04:39:03;;;;;;;7.10;5.13;;;5.00;99.90;;;;;;5018449;28;20435;-64
2023/04/19 04:41:30;;;;;;;8.65;5.32;;;4.90;99.90;;;;;;5018930;28;20050;-63
2023/04/19 04:44:00;;;;;;;6.88;5.18;;;4.90;99.90;;;;;;5017394;28;20270;-62
2023/04/19 04:46:26;;;;;;;7.60;5.28;;;4.90;99.90;;;;;;5019131;28;20040;-63
2023/04/19 04:48:52;;;;;;;7.07;4.60;;;5.00;99.90;;;;;;5037088;28;20592;-64
2023/04/19 04:51:18;;;;;;;6.22;4.15;;;5.00;99.90;;;;;;5017768;28;20048;-63
2023/04/19 04:53:44;;;;;;;7.13;4.70;;;5.00;99.90;;;;;;5012210;28;20252;-63
2023/04/19 04:56:10;;;;;;;6.80;4.43;;;5.10;99.90;;;;;;5021616;28;20161;-62
2023/04/19 04:58:35;;;;;;;7.72;4.68;;;5.10;99.90;;;;;;5029612;28;20155;-63
2023/04/19 05:01:01;;;;;;;5.93;4.40;;;5.10;99.90;;;;;;5022770;28;20044;-63
2023/04/19 05:03:27;;;;;;;6.07;4.72;;;5.20;99.90;;;;;;5018654;28;20539;-63
2023/04/19 05:05:53;;;;;;;6.65;4.13;;;5.10;99.90;;;;;;5019213;28;20043;-63
2023/04/19 05:08:18;;;;;;;8.25;4.68;;;5.20;99.90;;;;;;4998899;28;20152;-62
2023/04/19 05:10:44;;;;;;;8.50;4.15;;;5.10;99.90;;;;;;5018931;28;20029;-61
2023/04/19 05:13:10;;;;;;;5.15;4.10;;;5.10;99.90;;;;;;5019116;28;20049;-61
2023/04/19 05:15:36;;;;;;;7.28;3.90;;;5.10;99.90;;;;;;5016097;28;20267;-63
2023/04/19 05:18:02;;;;;;;7.40;3.60;;;5.20;99.90;;;;;;5027309;28;20041;-63
2023/04/19 05:20:28;;;;;;;8.30;4.05;;;5.20;99.90;;;;;;5008446;28;20529;-63
2023/04/19 05:22:58;;;;;;;6.22;3.78;;;5.30;99.90;;;;;;5018461;28;20051;-63
2023/04/19 05:25:24;;;;;;;7.72;3.60;;;5.40;99.90;;;;;;5017441;28;20033;-63
2023/04/19 05:27:49;;;;;;;5.63;3.25;;;5.50;99.90;;;;;;5022280;28;20459;-62
2023/04/19 05:30:15;;;;;;;6.85;3.95;;;5.60;99.90;;;;;;5027108;28;20059;-63
2023/04/19 05:32:41;;;;;;;4.78;3.50;;;5.70;99.90;;;;;;5028170;28;20264;-62
2023/04/19 05:35:07;;;;;;;5.75;3.60;;;5.90;99.90;;;;;;5036593;28;20053;-63
2023/04/19 05:37:33;;;;;;;5.05;2.85;;;6.10;99.90;;;;;;5019977;28;20080;-62
2023/04/19 05:39:58;;;;;;;4.20;2.80;;;6.30;99.90;;;;;;5017243;28;20202;-62
2023/04/19 05:42:24;;;;;;;4.32;2.97;;;6.40;99.90;;;;;;5028783;28;20037;-62
2023/04/19 05:44:50;;;;;;;6.15;3.00;;;6.50;99.90;;;;;;5012263;28;20044;-64
2023/04/19 05:47:16;;;;;;;4.45;2.95;;;6.60;99.90;;;;;;5019077;28;20045;-63
2023/04/19 05:49:42;;;;;;;5.00;2.53;;;6.70;99.90;;;;;;5018568;28;20052;-63
2023/04/19 05:52:07;;;;;;;4.55;2.92;;;6.80;99.90;;;;;;5016488;28;20045;-64
2023/04/19 05:54:34;;;;;;;4.88;2.70;;;6.90;99.90;;;;;;5019254;28;20147;-63
2023/04/19 05:57:01;;;;;;;6.60;3.00;;;7.00;99.90;;;;;;5001963;28;20040;-62
2023/04/19 05:59:27;;;;;;;6.85;3.33;;;7.30;99.90;;;;;;5018184;28;20051;-62
2023/04/19 06:01:54;;;;;;;6.57;3.22;;;7.30;99.90;;;;;;5020172;28;20029;-63
2023/04/19 06:04:20;;;;;;;3.92;2.47;;;7.50;99.90;;;;;;5022364;28;20296;-63
2023/04/19 06:06:46;;;;;;;5.28;2.40;;;7.60;99.90;;;;;;5018734;28;20076;-62
2023/04/19 06:09:13;;;;;;;3.67;2.85;;;7.70;99.90;;;;;;5011769;28;20675;-63
2023/04/19 06:11:39;;;;;;;4.45;2.58;;;7.80;99.90;;;;;;5019831;28;20072;-62
2023/04/19 06:14:05;;;;;;;4.57;2.75;;;7.90;99.90;;;;;;5005593;28;20322;-63
2023/04/19 06:16:31;;;;;;;5.78;3.50;;;8.10;99.90;;;;;;5026484;28;20375;-62
2023/04/19 06:18:56;;;;;;;5.28;2.65;;;8.20;99.90;;;;;;5023236;28;20042;-62
2023/04/19 06:21:22;;;;;;;4.53;2.40;;;8.30;76.70;;;;;;5020119;28;20360;-60
2023/04/19 06:23:48;;;;;;;5.50;2.53;;;8.30;32.30;;;;;;5017527;28;20136;-62
2023/04/19 06:26:14;;;;;;;3.90;2.00;;;8.40;23.30;;;;;;5015345;28;20332;-63
2023/04/19 06:28:45;;;;;;;5.07;2.22;;;8.40;66.80;;;;;;5020106;28;20041;-62
2023/04/19 06:31:11;;;;;;;5.90;2.70;;;8.50;6.70;;;;;;5027490;28;20041;-63
2023/04/19 06:33:37;;;;;;;4.95;3.40;;;8.60;56.00;;;;;;5028532;28;20052;-62
2023/04/19 06:36:03;;;;;;;4.10;3.30;;;8.80;70.30;;;;;;5016150;28;20232;-62
2023/04/19 06:38:29;;;;;;;3.30;2.35;;;9.00;1.00;;;;;;5017256;28;20163;-62
2023/04/19 06:40:54;;;;;;;4.65;2.20;;;9.10;1.00;;;;;;5004614;28;20551;-63
2023/04/19 06:43:20;;;;;;;4.40;2.45;;;9.20;1.00;;;;;;5018767;28;20033;-61
2023/04/19 06:45:46;;;;;;;4.22;2.10;;;9.30;1.00;;;;;;5027124;28;20036;-63
2023/04/19 06:48:12;;;;;;;3.50;2.45;;;9.40;1.00;;;;;;5008908;28;20037;-62
2023/04/19 06:50:38;;;;;;;4.93;2.20;;;9.50;1.00;;;;;;5003513;28;20048;-62
2023/04/19 06:53:04;;;;;;;3.88;2.05;;;9.70;1.00;;;;;;5015217;28;20137;-62
2023/04/19 06:55:30;;;;;;;3.92;1.65;;;9.90;1.00;;;;;;5026842;28;20053;-63
2023/04/19 06:57:55;;;;;;;3.55;1.77;;;10.00;1.00;;;;;;5014908;28;20037;-63
2023/04/19 07:00:22;;;;;;;2.47;1.35;;;10.10;1.00;;;;;;5009447;28;20048;-63
2023/04/19 07:02:49;;;;;;;2.47;1.00;;;10.30;1.00;;;;;;5015710;28;20473;-62
2023/04/19 07:05:15;;;;;;;2.58;1.30;;;10.40;99.90;;;;;;5016093;28;20041;-61
2023/04/19 07:07:40;;;;;;;3.60;1.25;;;10.40;99.90;;;;;;5014032;28;20036;-62
2023/04/19 07:10:08;;;;;;;2.15;1.10;;;10.50;99.90;;;;;;5014924;28;20041;-63
2023/04/19 07:12:34;;;;;;;4.07;0.95;;;10.70;99.90;;;;;;5016301;28;20045;-63
2023/04/19 07:14:59;;;;;;;1.30;0.77;;;10.70;99.90;;;;;;4997597;28;20567;-62
2023/04/19 07:17:39;;;;;;;1.98;0.90;;;10.80;99.90;;;;;;5008249;28;20036;-62
2023/04/19 07:20:36;;;;;;;2.65;0.50;;;10.90;99.90;;;;;;5025608;28;20095;-64
2023/04/19 07:23:01;;;;;;;3.10;0.73;;;11.10;99.90;;;;;;5012736;28;20466;-63
2023/04/19 07:25:27;;;;;;;2.45;0.75;;;11.20;99.90;;;;;;5014310;28;20045;-63
2023/04/19 07:27:53;;;;;;;2.28;0.80;;;11.30;99.90;;;;;;5017096;28;20403;-62
2023/04/19 07:30:20;;;;;;;0.90;0.55;;;11.40;99.90;;;;;;5014285;28;20068;-63
2023/04/19 07:32:45;;;;;;;4.40;0.70;;;11.50;99.90;;;;;;5015880;28;20049;-61
2023/04/19 07:35:11;;;;;;;3.40;0.50;;;11.60;99.90;;;;;;5016978;28;20300;-65
2023/04/19 07:37:37;;;;;;;1.42;0.40;;;11.60;99.90;;;;;;5015191;28;20120;-63
2023/04/19 07:40:04;;;;;;;1.17;0.60;;;11.60;99.90;;;;;;5008649;28;20037;-62
2023/04/19 07:42:30;;;;;;;1.90;0.70;;;11.80;99.90;;;;;;5032702;28;20053;-61
2023/04/19 07:44:56;;;;;;;1.80;0.50;;;12.00;99.90;;;;;;5015070;28;20041;-62
2023/04/19 07:47:21;;;;;;;3.58;0.95;;;12.10;99.90;;;;;;5012192;28;20523;-63
2023/04/19 07:49:51;;;;;;;1.60;0.50;;;12.20;99.90;;;;;;5016740;28;20091;-62
2023/04/19 07:52:17;;;;;;;1.65;0.73;;;12.20;99.90;;;;;;5017488;28;20084;-63
2023/04/19 07:54:43;;;;;;;1.38;0.40;;;12.30;99.90;;;;;;5013950;28;20120;-63
2023/04/19 07:57:08;;;;;;;1.70;0.60;;;12.40;99.90;;;;;;5014432;28;20851;-63
2023/04/19 07:59:34;;;;;;;2.03;0.57;;;12.50;99.90;;;;;;5012957;28;20335;-63
2023/04/19 08:02:00;;;;;;;2.15;0.50;;;12.60;99.90;;;;;;5005678;28;20044;-63
2023/04/19 08:04:26;;;;;;;3.35;0.60;;;12.80;99.90;;;;;;5015856;28;20037;-63
2023/04/19 08:06:51;;;;;;;1.38;0.50;;;12.90;99.90;;;;;;5013687;28;20589;-62
2023/04/19 08:09:18;;;;;;;1.92;0.85;;;13.10;99.90;;;;;;5015992;28;20490;-64
2023/04/19 08:11:43;;;;;;;1.70;0.50;;;13.40;99.90;;;;;;5028114;28;20037;-62
2023/04/19 08:14:09;;;;;;;1.83;0.60;;;13.50;99.90;;;;;;5017034;28;20482;-63
2023/04/19 08:16:35;;;;;;;2.35;0.52;;;13.50;99.90;;;;;;5017220;28;20480;-64
2023/04/19 08:19:00;;;;;;;1.05;0.30;;;13.60;99.90;;;;;;5010403;28;20116;-63
2023/04/19 08:21:26;;;;;;;2.05;0.50;;;13.60;99.90;;;;;;5026783;28;20045;-62
2023/04/19 08:23:52;;;;;;;0.90;0.32;;;13.60;99.90;;;;;;5003099;28;20048;-62
2023/04/19 08:26:18;;;;;;;1.40;0.40;;;13.60;99.90;;;;;;5013869;28;20126;-62
2023/04/19 08:28:44;;;;;;;1.52;0.30;;;13.60;99.90;;;;;;5016547;28;20548;-62
2023/04/19 08:31:10;;;;;;;2.10;0.70;;;13.70;99.90;;;;;;4993521;28;20095;-63
2023/04/19 08:33:35;;;;;;;1.38;0.40;;;13.70;99.90;;;;;;5016738;28;20190;-63
2023/04/19 08:36:01;;;;;;;2.13;0.40;;;13.80;99.90;;;;;;5000884;28;20037;-62
2023/04/19 08:38:27;;;;;;;2.30;0.57;;;13.90;99.90;;;;;;5013687;28;20034;-64
2023/04/19 08:40:56;;;;;;;1.35;0.40;;;14.00;99.90;;;;;;5030834;28;20465;-62
2023/04/19 08:43:24;;;;;;;2.15;0.50;;;14.20;99.90;;;;;;5027069;28;20041;-63
2023/04/19 08:45:51;;;;;;;1.92;0.40;;;14.20;99.90;;;;;;4996106;28;20055;-63
2023/04/19 08:48:17;;;;;;;1.88;0.50;;;14.20;99.90;;;;;;5017661;28;20049;-63
2023/04/19 08:50:47;;;;;;;1.20;0.40;;;14.40;99.90;;;;;;5016336;28;20049;-62
2023/04/19 08:53:13;;;;;;;3.20;0.80;;;14.40;99.90;;;;;;5013309;28;20041;-63
2023/04/19 08:55:41;;;;;;;2.45;0.40;;;14.40;99.90;;;;;;4996807;28;20107;-62
2023/04/19 08:58:07;;;;;;;1.30;0.40;;;14.40;97.00;;;;;;5019206;28;20535;-64
2023/04/19 09:00:33;;;;;;;1.88;0.30;;;14.40;93.90;;;;;;5021591;28;20116;-63
2023/04/19 09:02:59;;;;;;;2.40;0.50;;;14.50;98.50;;;;;;5016419;28;20499;-62
2023/04/19 09:05:24;;;;;;;1.20;0.40;;;14.40;99.90;;;;;;5014734;28;20057;-62
2023/04/19 09:07:50;;;;;;;1.38;0.30;;;14.40;98.80;;;;;;5008923;28;20083;-63
2023/04/19 09:10:19;;;;;;;4.63;0.45;;;14.40;87.40;;;;;;5003430;28;20207;-64
2023/04/19 09:13:04;;;;;;;2.90;0.30;;;14.50;81.40;;;;;;5014051;28;20131;-63
2023/04/19 09:15:38;;;;;;;1.35;0.40;;;14.60;70.70;;;;;;5018965;28;20059;-62
2023/04/19 09:18:06;;;;;;;1.80;0.45;;;14.80;67.00;;;;;;5016763;28;20503;-64
2023/04/19 09:20:43;;;;;;;1.50;0.40;;;14.90;68.80;;;;;;5013605;28;20710;-64
2023/04/19 09:23:19;;;;;;;1.50;0.30;;;15.10;49.90;;;;;;5029447;28;20048;-62
2023/04/19 09:25:59;;;;;;;1.73;0.20;;;15.10;49.60;;;;;;5016671;28;20049;-63
2023/04/19 09:28:26;;;;;;;0.52;0.30;;;15.10;49.40;;;;;;5017837;28;20098;-62
2023/04/19 09:30:51;;;;;;;2.78;0.30;;;15.00;39.90;;;;;;5015736;28;20092;-63
2023/04/19 09:33:35;;;;;;;0.90;0.28;;;15.00;39.40;;;;;;5037668;28;20136;-63
2023/04/19 09:36:01;;;;;;;1.35;0.20;;;15.00;47.00;;;;;;5014623;28;20041;-64
2023/04/19 09:38:27;;;;;;;1.00;0.30;;;15.10;41.70;;;;;;5019141;28;20561;-63
2023/04/19 09:41:06;;;;;;;1.65;0.30;;;15.20;53.30;;;;;;5018194;28;20041;-63
2023/04/19 09:43:32;;;;;;;0.77;0.20;;;15.40;59.90;;;;;;5030121;28;20317;-62
2023/04/19 09:45:58;;;;;;;0.82;0.20;;;15.50;38.90;;;;;;5019943;28;20528;-63
2023/04/19 09:48:23;;;;;;;2.53;0.20;;;15.40;34.20;;;;;;5028613;28;20038;-63
2023/04/19 09:51:01;;;;;;;1.98;0.10;;;15.40;28.00;;;;;;4995078;28;20309;-64
2023/04/19 09:53:28;;;;;;;1.17;0.20;;;15.20;24.20;;;;;;5019207;28;20095;-64
2023/04/19 09:55:54;;;;;;;2.05;0.20;;;15.10;17.10;;;;;;5034701;28;20037;-64
2023/04/19 09:58:20;;;;;;;2.42;0.30;;;14.90;24.60;;;;;;5017478;28;20044;-63
2023/04/19 10:00:47;;;;;;;0.80;0.20;;;15.00;32.20;;;;;;5034402;28;20045;-64
2023/04/19 10:03:14;;;;;;;2.30;0.40;;;15.00;33.20;;;;;;5011155;28;20042;-64
2023/04/19 10:05:42;;;;;;;3.05;0.30;;;14.80;30.50;;;;;;5020622;28;20045;-63
2023/04/19 10:08:09;;;;;;;0.80;0.20;;;14.80;27.70;;;;;;5037750;28;20053;-64
2023/04/19 10:10:35;;;;;;;1.27;0.10;;;14.60;22.10;;;;;;5014671;28;20092;-66
2023/04/19 10:13:10;;;;;;;1.15;0.30;;;14.70;13.60;;;;;;5028074;28;21347;-64
2023/04/19 10:15:36;;;;;;;0.95;0.20;;;14.80;19.70;;;;;;5019381;28;20045;-63
2023/04/19 10:18:04;;;;;;;1.08;0.35;;;15.00;27.00;;;;;;5015658;28;20207;-63
2023/04/19 10:20:49;;;;;;;3.03;0.28;;;15.20;35.70;;;;;;5021389;28;20127;-64
2023/04/19 10:23:16;;;;;;;1.65;0.22;;;14.80;34.00;;;;;;5018173;28;20041;-63
2023/04/19 10:25:47;;;;;;;1.73;0.30;;;14.70;25.90;;;;;;5018273;28;20037;-62
2023/04/19 10:28:16;;;;;;;0.65;0.30;;;14.60;29.60;;;;;;5035456;28;20037;-63
2023/04/19 10:31:01;;;;;;;1.23;0.22;;;14.70;28.40;;;;;;5014632;28;20516;-64
2023/04/19 10:33:34;;;;;;;1.17;0.30;;;14.60;29.40;;;;;;5027534;28;20416;-63
2023/04/19 10:36:01;;;;;;;0.82;0.20;;;14.60;34.80;;;;;;5027324;28;20042;-64
2023/04/19 10:38:36;;;;;;;0.80;0.20;;;14.70;39.10;;;;;;5016987;28;20033;-64
2023/04/19 10:41:03;;;;;;;0.75;0.28;;;14.50;27.10;;;;;;5019483;28;20067;-64
2023/04/19 10:43:33;;;;;;;0.82;0.10;;;14.60;32.60;;;;;;5016401;28;20045;-64
2023/04/19 10:46:00;;;;;;;1.80;0.17;;;14.50;24.00;;;;;;5016992;28;20124;-66
2023/04/19 10:48:29;;;;;;;1.23;0.20;;;14.80;30.80;;;;;;5017800;28;20555;-62
2023/04/19 10:51:15;;;;;;;0.50;0.20;;;14.80;26.50;;;;;;5027862;28;20598;-63
2023/04/19 10:53:47;;;;;;;0.40;0.20;;;14.90;31.80;;;;;;5021656;28;20047;-63
2023/04/19 10:56:14;;;;;;;0.43;0.20;;;14.90;28.00;;;;;;5013032;28;20547;-63
2023/04/19 10:58:59;;;;;;;1.17;0.30;;;14.70;28.80;;;;;;5016198;28;20549;-63
2023/04/19 11:01:42;;;;;;;1.08;0.30;;;14.90;40.30;;;;;;5034778;28;20095;-63
2023/04/19 11:04:15;;;;;;;1.67;0.43;;;14.80;57.90;;;;;;5037269;28;20041;-64
2023/04/19 11:06:51;;;;;;;3.08;0.30;;;14.80;65.20;;;;;;5016994;28;20272;-63
2023/04/19 11:09:37;;;;;;;1.38;0.30;;;14.80;49.80;;;;;;5018801;28;21056;-63
2023/04/19 11:12:13;;;;;;;0.75;0.30;;;14.50;37.10;;;;;;5017276;28;20120;-63
2023/04/19 11:14:40;;;;;;;0.73;0.30;;;14.80;44.60;;;;;;5016336;28;20111;-63
2023/04/19 11:17:24;;;;;;;2.65;0.40;;;14.60;39.90;;;;;;5017256;28;20451;-62
2023/04/19 11:20:00;;;;;;;3.35;0.90;;;14.60;41.40;;;;;;5010428;28;20286;-63
2023/04/19 11:22:40;;;;;;;1.60;0.50;;;14.50;46.90;;;;;;5019745;28;20494;-62
2023/04/19 11:25:13;;;;;;;2.25;0.47;;;14.60;57.40;;;;;;5012048;28;20038;-63
2023/04/19 11:27:40;;;;;;;1.50;0.50;;;14.70;47.00;;;;;;5018059;28;20316;-63
2023/04/19 11:30:11;;;;;;;1.10;0.43;;;14.60;48.00;;;;;;5016109;28;20065;-62
2023/04/19 11:32:48;;;;;;;0.88;0.20;;;14.50;53.60;;;;;;5013814;28;20251;-65
2023/04/19 11:35:17;;;;;;;1.05;0.40;;;14.60;38.90;;;;;;5013997;28;20041;-64
2023/04/19 11:37:42;;;;;;;1.73;0.63;;;14.70;53.50;;;;;;5016595;28;20034;-63
2023/04/19 11:40:13;;;;;;;0.93;0.60;;;14.60;62.90;;;;;;5005734;28;20049;-64
2023/04/19 11:42:38;;;;;;;3.38;0.80;;;14.80;72.20;;;;;;5015080;28;20514;-63
2023/04/19 11:45:04;;;;;;;4.47;0.95;;;14.90;82.50;;;;;;5010241;28;20191;-63
2023/04/19 11:47:32;;;;;;;3.38;1.27;;;14.90;85.50;;;;;;5014608;28;20365;-63
2023/04/19 11:50:33;;;;;;;2.28;0.80;;;14.80;93.00;;;;;;5014254;28;20045;-62
2023/04/19 11:52:59;;;;;;;4.63;1.25;;;14.80;79.30;;;;;;5034316;28;20041;-62
2023/04/19 11:55:25;;;;;;;3.03;1.00;;;14.90;86.10;;;;;;5014459;28;20306;-63
2023/04/19 11:57:51;;;;;;;1.42;0.70;;;15.10;87.40;;;;;;5028242;28;20086;-62
2023/04/19 12:00:27;;;;;;;2.00;0.80;;;15.30;90.70;;;;;;5029363;28;20037;-63
2023/04/19 12:02:53;;;;;;;2.15;0.90;;;15.40;95.20;;;;;;5018994;28;20051;-63
2023/04/19 12:05:19;;;;;;;2.72;0.70;;;15.60;99.90;;;;;;5015289;28;20121;-63
2023/04/19 12:08:07;;;;;;;3.20;0.80;;;15.40;91.30;;;;;;5016547;28;20041;-63
2023/04/19 12:10:33;;;;;;;2.30;0.80;;;15.40;90.00;;;;;;5016849;28;20041;-64
2023/04/19 12:12:59;;;;;;;3.83;0.95;;;15.50;88.00;;;;;;5014501;28;20052;-64
2023/04/19 12:15:41;;;;;;;2.05;0.82;;;15.70;93.80;;;;;;5015688;28;20811;-62
2023/04/19 12:18:07;;;;;;;1.80;0.75;;;15.60;89.00;;;;;;5015584;28;20038;-64
2023/04/19 12:20:38;;;;;;;3.60;0.70;;;15.50;74.40;;;;;;5013312;28;20133;-63
2023/04/19 12:23:04;;;;;;;3.05;0.88;;;15.60;90.80;;;;;;5012741;28;20064;-63
2023/04/19 12:25:33;;;;;;;3.50;1.50;;;15.60;77.90;;;;;;5014367;28;20049;-63
2023/04/19 12:28:01;;;;;;;1.40;0.60;;;15.70;89.50;;;;;;5027292;28;20178;-64
2023/04/19 12:30:27;;;;;;;1.23;0.77;;;15.90;76.90;;;;;;5031306;28;20521;-63
2023/04/19 12:32:57;;;;;;;2.65;0.80;;;15.70;65.60;;;;;;5013551;28;20060;-63
2023/04/19 12:35:26;;;;;;;2.28;0.65;;;15.80;78.30;;;;;;5019992;28;20033;-63
2023/04/19 12:37:53;;;;;;;2.40;0.60;;;15.90;72.00;;;;;;5014980;28;20423;-63
2023/04/19 12:40:20;;;;;;;2.50;0.80;;;16.00;86.70;;;;;;5014652;28;20522;-62
2023/04/19 12:42:45;;;;;;;2.55;0.70;;;16.00;85.20;;;;;;5016906;28;20069;-62
2023/04/19 12:45:12;;;;;;;3.47;0.90;;;15.90;82.40;;;;;;5015394;28;20302;-63
2023/04/19 12:47:39;;;;;;;3.38;0.95;;;15.90;74.40;;;;;;5015344;28;20250;-64
2023/04/19 12:50:06;;;;;;;3.35;1.00;;;15.80;73.00;;;;;;5013754;28;20040;-63
2023/04/19 12:52:32;;;;;;;2.20;0.85;;;16.00;74.90;;;;;;5012943;28;20053;-64